Time;durP1;ratioP1;P1;durP2;ratioP2;P2;SDS_P1;SDS_P2;PMS_P1;PMS_P2;Temp;Humidity;BMP_temperature;BMP_pressure;BME280_temperature;BME280_humidity;BME280_pressure;Samples;Min_cycle;Max_cycle;Signal;HPM_P1;HPM_P2
2021/12/28 00:02:22;;;;;;;22.73;6.50;;;;;;;8.76;86.83;99239.59;3567962;40;20052;-66
2021/12/28 00:04:48;;;;;;;30.75;6.30;;;;;;;8.71;86.44;99234.59;3568436;40;20044;-66
2021/12/28 00:07:13;;;;;;;24.05;6.25;;;;;;;8.71;86.79;99239.09;3568096;40;20057;-65
2021/12/28 00:09:39;;;;;;;22.52;7.03;;;;;;;8.66;86.47;99227.88;3567434;40;20056;-66
2021/12/28 00:12:06;;;;;;;29.58;6.78;;;;;;;8.57;86.45;99219.63;3567110;40;20111;-65
2021/12/28 00:14:36;;;;;;;23.73;6.00;;;;;;;8.64;86.81;99236.06;3568281;40;20053;-66
2021/12/28 00:19:48;;;;;;;25.17;6.82;;;;;;;8.56;85.95;99230.44;3566445;40;20056;-67
2021/12/28 00:22:14;;;;;;;24.17;6.93;;;;;;;8.55;86.16;99229.59;3566612;40;20057;-66
2021/12/28 00:24:40;;;;;;;29.10;7.13;;;;;;;8.55;87.01;99226.06;3569408;40;20429;-65
2021/12/28 00:27:05;;;;;;;27.17;6.70;;;;;;;8.52;86.58;99219.13;3568297;40;20053;-66
2021/12/28 00:29:31;;;;;;;27.05;7.15;;;;;;;8.55;86.84;99220.72;3558664;40;20467;-66
2021/12/28 00:31:57;;;;;;;28.10;6.13;;;;;;;8.53;86.68;99212.81;3566822;40;20129;-67
2021/12/28 00:34:23;;;;;;;29.58;7.10;;;;;;;8.54;86.09;99209.16;3566832;40;20100;-66
2021/12/28 00:36:49;;;;;;;26.38;6.88;;;;;;;8.50;86.86;99202.34;3567531;40;20045;-66
2021/12/28 00:39:15;;;;;;;28.27;6.40;;;;;;;8.54;86.95;99211.81;3565490;40;20060;-63
2021/12/28 00:41:41;;;;;;;26.52;6.82;;;;;;;8.29;86.82;99166.50;3570286;40;20132;-66
2021/12/28 00:44:07;;;;;;;23.10;6.57;;;;;;;8.35;86.43;99174.91;3568825;40;20064;-65
2021/12/28 00:46:33;;;;;;;25.63;6.70;;;;;;;8.57;85.86;99208.91;3570831;40;20654;-66
2021/12/28 00:48:58;;;;;;;28.30;6.90;;;;;;;8.59;86.65;99206.97;3567974;40;20072;-66
2021/12/28 00:51:24;;;;;;;30.38;6.88;;;;;;;8.62;86.13;99203.16;3570356;40;20099;-66
2021/12/28 00:53:50;;;;;;;29.13;7.28;;;;;;;8.66;86.06;99195.72;3566576;40;20064;-66
2021/12/28 00:56:16;;;;;;;36.17;12.63;;;;;;;8.68;86.08;99196.47;3567503;40;20064;-65
2021/12/28 00:58:41;;;;;;;29.92;7.30;;;;;;;8.70;86.30;99194.53;3568881;40;20075;-66
2021/12/28 01:01:07;;;;;;;30.05;6.80;;;;;;;8.69;86.41;99190.13;3568784;40;20055;-66
2021/12/28 01:03:38;;;;;;;30.73;7.35;;;;;;;8.70;86.15;99186.50;3568874;40;20053;-66
2021/12/28 01:06:06;;;;;;;33.20;6.90;;;;;;;8.67;85.58;99181.38;3567510;40;20392;-66
2021/12/28 01:08:33;;;;;;;31.67;6.28;;;;;;;8.64;85.99;99176.28;3569075;40;20061;-66
2021/12/28 01:10:59;;;;;;;27.33;5.72;;;;;;;8.64;85.92;99176.28;3568183;40;20053;-66
2021/12/28 01:13:26;;;;;;;29.30;6.32;;;;;;;8.62;85.86;99175.53;3568741;40;20053;-66
2021/12/28 01:15:53;;;;;;;25.40;5.35;;;;;;;8.59;85.42;99173.94;3569639;40;20048;-66
2021/12/28 01:18:21;;;;;;;28.77;6.50;;;;;;;8.55;85.09;99177.84;3569796;40;20056;-66
2021/12/28 01:20:48;;;;;;;29.33;6.18;;;;;;;8.55;85.62;99173.34;3567229;40;20080;-65
2021/12/28 01:23:14;;;;;;;29.17;5.97;;;;;;;8.53;86.22;99169.97;3571307;40;20198;-65
2021/12/28 01:25:40;;;;;;;28.02;5.97;;;;;;;8.52;85.18;99168.25;3569064;40;20064;-65
2021/12/28 01:28:07;;;;;;;33.65;6.68;;;;;;;8.51;85.29;99171.06;3569568;40;20045;-65
2021/12/28 01:30:34;;;;;;;30.65;6.25;;;;;;;8.43;86.03;99152.91;3572835;40;20069;-65
2021/12/28 01:33:00;;;;;;;29.30;6.28;;;;;;;8.36;85.19;99140.94;3560066;40;20060;-65
2021/12/28 01:35:29;;;;;;;30.77;6.50;;;;;;;8.49;85.45;99170.31;3562060;40;20400;-65
2021/12/28 01:37:57;;;;;;;33.13;6.53;;;;;;;8.45;85.87;99175.06;3569079;40;20097;-66
2021/12/28 01:40:28;;;;;;;31.40;6.75;;;;;;;8.46;86.21;99174.09;3569026;40;20063;-65
2021/12/28 01:43:08;;;;;;;25.42;5.88;;;;;;;8.47;86.17;99166.88;3569263;40;20053;-65
2021/12/28 01:45:50;;;;;;;29.02;6.53;;;;;;;8.46;85.63;99174.09;3568079;40;20060;-65
2021/12/28 01:48:38;;;;;;;34.20;6.75;;;;;;;8.45;86.05;99171.53;3570214;40;20057;-65
2021/12/28 01:51:11;;;;;;;28.42;7.05;;;;;;;8.45;85.41;99167.03;3566391;40;20068;-65
2021/12/28 01:53:39;;;;;;;24.55;5.32;;;;;;;8.45;85.51;99167.03;3572549;40;20667;-65
2021/12/28 01:56:11;;;;;;;30.00;5.72;;;;;;;8.46;86.23;99168.72;3570784;40;20049;-65
2021/12/28 01:58:37;;;;;;;32.97;6.18;;;;;;;8.47;86.24;99165.09;3569343;40;20053;-65
2021/12/28 02:01:06;;;;;;;31.40;6.57;;;;;;;8.46;85.52;99152.66;3568199;40;20391;-65
2021/12/28 02:03:36;;;;;;;29.80;5.93;;;;;;;8.53;86.33;99159.25;3571784;40;20053;-65
2021/12/28 02:06:03;;;;;;;30.40;6.20;;;;;;;8.55;85.77;99154.59;3570421;40;20056;-65
2021/12/28 02:08:29;;;;;;;27.98;6.18;;;;;;;8.56;85.59;99159.00;3567943;40;20601;-66
2021/12/28 02:10:56;;;;;;;31.70;6.25;;;;;;;8.61;86.07;99153.25;3567857;40;20177;-66
2021/12/28 02:13:24;;;;;;;29.88;6.43;;;;;;;8.63;85.68;99150.44;3567596;40;20064;-65
2021/12/28 02:15:51;;;;;;;29.25;6.28;;;;;;;8.64;85.90;99160.22;3569481;40;20060;-65
2021/12/28 02:18:22;;;;;;;36.22;6.15;;;;;;;8.67;86.05;99154.59;3568733;40;20061;-65
2021/12/28 02:20:50;;;;;;;34.50;6.20;;;;;;;8.68;85.30;99154.47;3611694;23;20063;-61
2021/12/28 02:23:16;;;;;;;35.15;6.85;;;;;;;8.65;85.35;99152.03;3582316;40;20052;-61
2021/12/28 02:25:43;;;;;;;34.13;7.13;;;;;;;8.70;85.35;99149.84;3583943;40;20040;-61
2021/12/28 02:28:13;;;;;;;32.50;6.20;;;;;;;8.72;86.06;99145.22;3582031;40;20059;-61
2021/12/28 02:30:44;;;;;;;32.00;6.82;;;;;;;8.73;86.22;99149.59;3581035;40;20125;-61
2021/12/28 02:33:10;;;;;;;31.20;6.40;;;;;;;8.75;85.44;99146.78;3582884;40;20063;-61
2021/12/28 02:35:38;;;;;;;34.20;6.38;;;;;;;8.76;85.58;99146.66;3584192;40;20044;-61
2021/12/28 02:38:07;;;;;;;41.17;7.20;;;;;;;8.77;86.07;99142.16;3583755;40;20069;-61
2021/12/28 02:40:36;;;;;;;34.72;5.75;;;;;;;8.74;85.52;99132.53;3583446;40;20071;-61
2021/12/28 02:43:07;;;;;;;31.33;6.45;;;;;;;8.81;85.66;99143.59;3583888;40;20322;-61
2021/12/28 02:45:50;;;;;;;28.52;6.57;;;;;;;8.80;86.25;99140.06;3584127;40;20053;-61
2021/12/28 02:48:16;;;;;;;27.88;5.55;;;;;;;8.83;85.43;99141.66;3582460;40;20052;-61
2021/12/28 02:50:50;;;;;;;33.05;5.93;;;;;;;8.86;85.91;99136.06;3583037;40;20057;-61
2021/12/28 02:53:19;;;;;;;36.28;6.75;;;;;;;8.89;86.19;99135.81;3583589;40;20087;-61
2021/12/28 02:55:47;;;;;;;29.80;7.00;;;;;;;8.83;85.67;99112.19;3582998;40;20314;-61
2021/12/28 02:58:36;;;;;;;31.55;6.13;;;;;;;8.92;85.49;99124.00;3583070;40;20567;-61
2021/12/28 03:01:14;;;;;;;33.13;6.20;;;;;;;8.92;85.33;99116.78;3583743;40;20056;-62
2021/12/28 03:03:43;;;;;;;36.38;5.95;;;;;;;8.92;85.76;99119.47;3581653;40;20083;-61
2021/12/28 03:06:15;;;;;;;31.73;5.68;;;;;;;8.88;85.92;99112.69;3582283;40;20112;-61
2021/12/28 03:08:45;;;;;;;39.58;7.07;;;;;;;8.93;85.79;99117.63;3582265;40;20414;-62
2021/12/28 03:11:12;;;;;;;34.63;5.88;;;;;;;8.93;85.63;99113.13;3583592;40;20062;-62
2021/12/28 03:13:46;;;;;;;31.13;5.90;;;;;;;8.89;86.17;99106.31;3583476;40;20048;-60
2021/12/28 03:16:15;;;;;;;33.90;6.07;;;;;;;8.62;85.54;99058.53;3568480;40;20041;-61
2021/12/28 03:18:42;;;;;;;27.92;5.32;;;;;;;8.94;85.57;99114.81;3580378;40;20060;-61
2021/12/28 03:21:10;;;;;;;34.63;6.65;;;;;;;8.91;85.99;99107.06;3583545;40;20129;-62
2021/12/28 03:23:39;;;;;;;30.15;5.90;;;;;;;8.90;85.68;99102.66;3583402;40;20052;-61
2021/12/28 03:26:07;;;;;;;32.15;5.50;;;;;;;8.91;86.02;99101.72;3581476;40;20052;-61
2021/12/28 03:28:39;;;;;;;31.42;5.63;;;;;;;8.95;86.27;99111.19;3583656;40;20052;-61
2021/12/28 03:31:09;;;;;;;25.15;5.68;;;;;;;8.97;86.33;99098.50;3583633;40;20054;-61
2021/12/28 03:33:40;;;;;;;33.75;5.20;;;;;;;8.94;86.93;99082.66;3582177;40;20105;-61
2021/12/28 03:36:07;;;;;;;31.95;5.53;;;;;;;9.07;86.50;99098.59;3583022;40;20079;-61
2021/12/28 03:38:37;;;;;;;26.52;4.70;;;;;;;9.07;86.31;99096.75;3584033;40;20483;-63
2021/12/28 03:41:07;;;;;;;29.25;4.53;;;;;;;9.16;86.02;99091.59;3585170;40;20313;-62
2021/12/28 03:43:38;;;;;;;23.25;4.45;;;;;;;9.25;86.54;99085.47;3582864;40;20054;-64
2021/12/28 03:46:06;;;;;;;26.40;5.13;;;;;;;9.28;86.14;99085.22;3583460;40;20056;-61
2021/12/28 03:48:32;;;;;;;27.23;4.53;;;;;;;9.31;85.54;99079.59;3583011;40;20063;-62
2021/12/28 03:50:57;;;;;;;22.45;4.97;;;;;;;8.94;85.88;99012.16;3583095;40;20712;-61
2021/12/28 03:53:24;;;;;;;26.83;5.38;;;;;;;9.36;85.95;99073.84;3582376;40;20060;-63
2021/12/28 03:55:49;;;;;;;22.58;4.72;;;;;;;9.32;85.81;99062.50;3581616;40;20423;-62
2021/12/28 03:58:15;;;;;;;28.58;4.95;;;;;;;9.33;85.62;99061.56;3582463;40;20056;-61
2021/12/28 04:00:46;;;;;;;29.75;4.70;;;;;;;9.40;85.15;99065.41;3582685;40;20052;-61
2021/12/28 04:03:13;;;;;;;20.35;4.35;;;;;;;9.30;85.71;99046.56;3580424;40;20059;-61
2021/12/28 04:05:42;;;;;;;23.83;4.47;;;;;;;9.46;85.81;99064.03;3581829;40;20055;-61
2021/12/28 04:08:08;;;;;;;21.60;4.00;;;;;;;9.44;85.20;99056.09;3583417;40;20049;-62
2021/12/28 04:10:49;;;;;;;21.48;4.07;;;;;;;9.46;84.77;99054.16;3583066;40;20067;-60
2021/12/28 04:13:16;;;;;;;25.52;4.70;;;;;;;9.50;85.53;99062.78;3582079;40;20056;-61
2021/12/28 04:15:41;;;;;;;23.48;4.72;;;;;;;9.54;85.01;99054.31;3582397;40;20055;-61
2021/12/28 04:18:07;;;;;;;21.48;4.38;;;;;;;9.51;85.65;99054.63;3583558;40;20048;-61
2021/12/28 04:20:32;;;;;;;22.95;4.63;;;;;;;9.23;85.12;99009.69;3581797;40;20064;-61
2021/12/28 04:22:58;;;;;;;31.10;4.53;;;;;;;9.61;84.76;99054.69;3581122;40;20310;-61
2021/12/28 04:25:24;;;;;;;20.25;3.78;;;;;;;9.64;85.42;99056.22;3582545;40;20056;-62
2021/12/28 04:27:49;;;;;;;23.92;4.40;;;;;;;9.67;85.33;99048.78;3582947;40;20045;-61
2021/12/28 04:30:16;;;;;;;19.63;3.53;;;;;;;9.64;84.48;99050.84;3582284;40;20055;-62
2021/12/28 04:32:43;;;;;;;24.23;3.75;;;;;;;9.72;84.34;99061.78;3580871;40;20051;-61
2021/12/28 04:35:11;;;;;;;17.70;3.97;;;;;;;9.72;84.30;99059.09;3582798;40;20060;-61
2021/12/28 04:37:38;;;;;;;21.48;4.38;;;;;;;9.74;85.38;99060.69;3583557;40;20060;-61
2021/12/28 04:40:08;;;;;;;22.77;3.97;;;;;;;9.72;85.29;99051.91;3581657;40;20100;-61
2021/12/28 04:42:33;;;;;;;28.52;4.55;;;;;;;9.76;84.63;99063.22;3582445;40;20613;-61
2021/12/28 04:44:59;;;;;;;21.55;4.20;;;;;;;9.81;84.72;99071.72;3582455;40;20060;-61
2021/12/28 04:47:25;;;;;;;17.98;3.50;;;;;;;9.69;84.18;99046.78;3583070;40;20053;-61
2021/12/28 04:49:51;;;;;;;21.00;3.45;;;;;;;9.82;84.57;99068.03;3581591;40;20076;-62
2021/12/28 04:52:16;;;;;;;19.60;3.53;;;;;;;9.87;84.84;99070.34;3582046;40;20056;-61
2021/12/28 04:54:43;;;;;;;21.23;4.60;;;;;;;9.81;84.25;99061.00;3582288;40;20059;-62
2021/12/28 04:57:08;;;;;;;22.67;3.67;;;;;;;9.81;84.46;99058.31;3583215;40;20052;-61
2021/12/28 04:59:35;;;;;;;19.13;4.03;;;;;;;9.90;83.98;99062.88;3581656;40;20148;-61
2021/12/28 05:02:02;;;;;;;21.23;4.10;;;;;;;9.91;84.43;99080.66;3582531;40;20056;-61
2021/12/28 05:04:27;;;;;;;20.42;3.85;;;;;;;9.89;84.19;99073.72;3582440;40;20442;-61
2021/12/28 05:06:55;;;;;;;17.50;3.60;;;;;;;9.87;84.99;99055.09;3581768;40;20068;-61
2021/12/28 05:09:21;;;;;;;17.58;3.35;;;;;;;9.86;84.47;99052.53;3582900;40;20121;-61
2021/12/28 05:11:48;;;;;;;17.00;3.35;;;;;;;9.73;84.38;99028.59;3581237;40;20056;-61
2021/12/28 05:14:16;;;;;;;17.15;3.95;;;;;;;9.85;84.54;99051.69;3581354;40;20121;-61
2021/12/28 05:16:43;;;;;;;18.13;3.38;;;;;;;9.87;84.58;99054.25;3582558;40;20051;-61
2021/12/28 05:19:09;;;;;;;15.30;3.33;;;;;;;9.67;84.35;99021.06;3582878;40;20080;-61
2021/12/28 05:21:37;;;;;;;19.75;2.88;;;;;;;9.85;84.74;99046.31;3582412;40;20048;-61
2021/12/28 05:24:03;;;;;;;11.75;2.97;;;;;;;9.86;85.21;99048.00;3581418;40;20055;-61
2021/12/28 05:26:29;;;;;;;18.70;3.00;;;;;;;9.70;85.09;99018.13;3583719;40;20060;-61
2021/12/28 05:28:55;;;;;;;16.10;3.25;;;;;;;9.74;84.85;99017.75;3583710;40;20351;-61
2021/12/28 05:31:25;;;;;;;15.93;3.35;;;;;;;9.83;84.79;99024.16;3583169;40;20063;-61
2021/12/28 05:33:52;;;;;;;14.68;3.13;;;;;;;9.92;84.91;99035.88;3583157;40;20089;-61
2021/12/28 05:36:19;;;;;;;9.90;2.75;;;;;;;9.86;84.08;99023.84;3584861;40;20104;-62
2021/12/28 05:38:44;;;;;;;17.17;3.63;;;;;;;9.90;84.97;99037.88;3583780;40;20307;-63
2021/12/28 05:41:10;;;;;;;12.02;2.53;;;;;;;9.86;85.08;99031.91;3580905;40;20056;-62
2021/12/28 05:43:36;;;;;;;19.30;3.63;;;;;;;9.86;84.57;99031.06;3582980;40;20059;-61
2021/12/28 05:46:02;;;;;;;15.07;3.58;;;;;;;9.88;85.07;99026.41;3584505;40;20055;-61
2021/12/28 05:48:28;;;;;;;11.02;2.72;;;;;;;9.88;85.24;99018.34;3584792;40;20121;-62
2021/12/28 05:50:54;;;;;;;16.27;2.92;;;;;;;9.86;84.56;99015.78;3583066;40;20060;-61
2021/12/28 05:53:19;;;;;;;14.35;2.90;;;;;;;9.91;84.45;99024.31;3583994;40;20117;-61
2021/12/28 05:55:45;;;;;;;14.50;2.85;;;;;;;9.87;85.10;99012.16;3583297;40;20064;-61
2021/12/28 05:58:11;;;;;;;11.27;2.80;;;;;;;9.69;84.52;98982.41;3584515;40;20375;-61
2021/12/28 06:00:37;;;;;;;11.73;3.40;;;;;;;9.89;84.54;99015.53;3582734;40;20483;-61
2021/12/28 06:03:03;;;;;;;11.77;2.40;;;;;;;9.93;84.78;99010.75;3582603;40;20126;-61
2021/12/28 06:05:29;;;;;;;15.23;2.80;;;;;;;9.57;84.69;98945.06;3583707;40;20064;-62
2021/12/28 06:07:54;;;;;;;12.32;2.95;;;;;;;10.00;84.38;99012.75;3581053;40;20318;-63
2021/12/28 06:10:20;;;;;;;10.57;2.50;;;;;;;10.03;84.93;99005.44;3582096;40;20056;-61
2021/12/28 06:12:46;;;;;;;13.68;2.70;;;;;;;9.98;84.29;98990.56;3579998;40;20055;-61
2021/12/28 06:15:13;;;;;;;13.40;2.65;;;;;;;10.02;84.88;99003.72;3579514;40;20056;-63
2021/12/28 06:17:39;;;;;;;12.75;2.45;;;;;;;9.80;84.29;98962.69;3582664;40;20051;-61
2021/12/28 06:20:06;;;;;;;8.70;2.28;;;;;;;9.96;84.51;98989.88;3583148;40;20063;-61
2021/12/28 06:22:32;;;;;;;12.82;2.50;;;;;;;10.03;83.72;99000.06;3582876;40;20044;-61
2021/12/28 06:24:57;;;;;;;15.38;2.30;;;;;;;10.04;84.10;98999.06;3583112;40;20060;-61
2021/12/28 06:27:23;;;;;;;8.50;2.30;;;;;;;9.98;83.92;98982.50;3576588;40;20146;-61
2021/12/28 06:29:49;;;;;;;13.25;2.45;;;;;;;10.02;83.67;98982.25;3582945;40;20052;-62
2021/12/28 06:32:15;;;;;;;11.77;2.55;;;;;;;10.03;84.03;98973.22;3583127;40;20071;-62
2021/12/28 06:34:41;;;;;;;9.52;2.55;;;;;;;9.86;83.87;98948.69;3582386;40;20541;-62
2021/12/28 06:37:08;;;;;;;8.00;2.10;;;;;;;9.98;83.46;98955.66;3583275;40;20064;-62
2021/12/28 06:39:34;;;;;;;12.68;5.40;;;;;;;9.93;83.62;98957.94;3582218;40;20064;-61
2021/12/28 06:41:59;;;;;;;10.68;2.70;;;;;;;9.87;83.54;98950.44;3582786;40;20325;-62
2021/12/28 06:44:25;;;;;;;11.88;2.55;;;;;;;9.89;82.75;98961.84;3583647;40;20282;-62
2021/12/28 06:46:51;;;;;;;9.90;2.10;;;;;;;9.94;83.60;98978.41;3581797;40;20267;-61
2021/12/28 06:49:17;;;;;;;10.55;2.20;;;;;;;9.95;83.77;98977.41;3583663;40;20414;-61
2021/12/28 06:51:44;;;;;;;8.77;2.28;;;;;;;9.87;83.45;98968.38;3580755;40;20044;-61
2021/12/28 06:54:10;;;;;;;10.20;2.45;;;;;;;9.92;83.75;98956.22;3581071;40;20298;-61
2021/12/28 06:56:36;;;;;;;10.48;1.92;;;;;;;9.97;83.12;98963.88;3583106;40;20058;-61
2021/12/28 06:59:02;;;;;;;7.40;1.85;;;;;;;9.96;83.08;98971.06;3583785;40;20084;-63
2021/12/28 07:01:28;;;;;;;10.60;2.17;;;;;;;9.94;83.19;98975.72;3582304;40;20096;-61
2021/12/28 07:03:53;;;;;;;10.05;2.25;;;;;;;9.92;83.28;98971.47;3579954;40;20055;-61
2021/12/28 07:06:23;;;;;;;13.40;2.67;;;;;;;9.94;83.54;98978.41;3584027;40;20051;-61
2021/12/28 07:08:49;;;;;;;13.10;2.70;;;;;;;9.93;83.90;98979.41;3583581;40;20044;-61
2021/12/28 07:11:16;;;;;;;9.02;2.20;;;;;;;9.96;83.36;98979.13;3582494;40;20063;-61
2021/12/28 07:13:42;;;;;;;9.77;2.10;;;;;;;9.94;83.30;98975.72;3581774;40;20089;-63
2021/12/28 07:16:08;;;;;;;8.68;2.03;;;;;;;9.71;83.34;98931.31;3583423;40;20048;-62
2021/12/28 07:18:33;;;;;;;8.10;1.92;;;;;;;9.99;83.37;98978.00;3582973;40;20063;-61
2021/12/28 07:21:00;;;;;;;13.77;2.17;;;;;;;10.02;83.94;98975.03;3582223;40;20052;-61
2021/12/28 07:23:26;;;;;;;9.73;1.77;;;;;;;10.05;83.31;98971.22;3579899;40;20544;-61
2021/12/28 07:25:54;;;;;;;6.68;1.88;;;;;;;10.00;83.31;98964.44;3582632;40;20410;-61
2021/12/28 07:28:21;;;;;;;7.97;2.00;;;;;;;9.99;83.71;98978.00;3582274;40;20059;-61
2021/12/28 07:30:47;;;;;;;8.43;2.08;;;;;;;10.04;83.90;98969.53;3582596;40;20102;-62
2021/12/28 07:33:13;;;;;;;4.80;1.52;;;;;;;10.09;84.06;98962.78;3581437;40;20052;-61
2021/12/28 07:35:40;;;;;;;5.22;1.45;;;;;;;10.05;83.68;98953.28;3580010;40;20048;-61
2021/12/28 07:38:05;;;;;;;7.38;2.03;;;;;;;9.91;84.14;98933.06;3581786;40;20055;-61
2021/12/28 07:40:31;;;;;;;9.63;3.60;;;;;;;10.08;84.00;98973.63;3582467;40;20088;-61
2021/12/28 07:42:57;;;;;;;7.35;2.08;;;;;;;9.81;84.58;98932.19;3582094;40;20137;-63
2021/12/28 07:45:22;;;;;;;6.65;2.50;;;;;;;10.01;84.90;98967.97;3582805;40;20055;-64
2021/12/28 07:47:48;;;;;;;7.90;2.88;;;;;;;10.06;84.52;98967.56;3580144;40;20115;-61
2021/12/28 07:50:17;;;;;;;8.55;2.38;;;;;;;9.98;85.09;98952.97;3573169;40;20088;-61
2021/12/28 07:52:45;;;;;;;5.90;2.20;;;;;;;10.04;85.25;98975.75;3582653;40;20349;-61
2021/12/28 07:55:12;;;;;;;5.68;2.65;;;;;;;10.06;85.00;98967.56;3581562;40;20515;-61
2021/12/28 07:57:39;;;;;;;7.38;2.45;;;;;;;10.07;85.70;98964.75;3582866;40;20044;-61
2021/12/28 08:00:15;;;;;;;4.15;2.20;;;;;;;10.08;84.78;98961.06;3582613;40;20068;-61
2021/12/28 08:02:43;;;;;;;6.20;2.80;;;;;;;10.03;84.89;98946.38;3578331;40;20108;-61
2021/12/28 08:05:10;;;;;;;7.55;2.72;;;;;;;9.92;85.30;98926.69;3581000;40;20371;-61
2021/12/28 08:07:36;;;;;;;4.40;2.55;;;;;;;10.08;85.02;98961.06;3581402;40;20054;-61
2021/12/28 08:10:04;;;;;;;5.90;3.05;;;;;;;10.04;85.63;98950.75;3582264;40;20638;-62
2021/12/28 08:12:30;;;;;;;7.70;3.13;;;;;;;10.08;85.12;98954.84;3580635;40;20063;-60
2021/12/28 08:14:56;;;;;;;8.02;3.35;;;;;;;10.12;85.23;98956.28;3582223;40;20076;-61
2021/12/28 08:17:21;;;;;;;12.55;3.50;;;;;;;10.20;85.73;98967.16;3581979;40;20491;-61
2021/12/28 08:19:47;;;;;;;5.88;2.85;;;;;;;10.21;85.73;98958.13;3613507;23;20059;-65
2021/12/28 08:22:12;;;;;;;7.75;3.15;;;;;;;10.18;85.32;98961.06;3575941;40;20048;-65
2021/12/28 08:24:38;;;;;;;6.88;3.17;;;;;;;10.14;85.55;98956.97;3580188;40;20060;-66
2021/12/28 08:27:04;;;;;;;12.32;3.20;;;;;;;10.19;85.49;98957.44;3579705;40;20302;-65
2021/12/28 08:29:29;;;;;;;6.00;3.13;;;;;;;10.00;86.20;98929.56;3579017;40;20134;-66
2021/12/28 08:31:55;;;;;;;5.75;2.90;;;;;;;10.10;86.16;98945.66;3577076;40;20307;-66
2021/12/28 08:34:21;;;;;;;7.20;3.42;;;;;;;10.20;86.33;98956.44;3570817;40;20465;-66
2021/12/28 08:36:46;;;;;;;5.82;3.28;;;;;;;10.18;86.24;98951.22;3567719;40;20387;-65
2021/12/28 08:39:12;;;;;;;5.63;3.17;;;;;;;10.23;86.45;98953.47;3569922;40;20060;-65
2021/12/28 08:41:37;;;;;;;6.53;3.42;;;;;;;10.24;86.58;98949.78;3570313;40;20295;-65
2021/12/28 08:44:03;;;;;;;7.72;4.03;;;;;;;9.96;86.00;98903.97;3571005;40;20245;-65
2021/12/28 08:46:29;;;;;;;8.23;4.35;;;;;;;10.29;85.90;98955.63;3571096;40;20045;-65
2021/12/28 08:48:55;;;;;;;6.15;4.35;;;;;;;10.16;86.20;98936.22;3570974;40;20075;-64
2021/12/28 08:51:21;;;;;;;6.28;4.55;;;;;;;10.03;86.63;98911.47;3570314;40;20061;-65
2021/12/28 08:53:47;;;;;;;6.15;4.32;;;;;;;10.08;86.67;98909.22;3570019;40;20069;-65
2021/12/28 08:56:13;;;;;;;9.32;5.10;;;;;;;10.30;86.39;98943.91;3569637;40;20353;-63
2021/12/28 08:58:39;;;;;;;7.32;5.05;;;;;;;10.29;86.36;98941.38;3571153;40;20052;-63
2021/12/28 09:01:05;;;;;;;5.28;4.65;;;;;;;10.32;86.64;98949.97;3570392;40;20651;-63
2021/12/28 09:03:30;;;;;;;7.38;5.00;;;;;;;10.31;86.35;98937.56;3573538;40;20622;-64
2021/12/28 09:05:56;;;;;;;8.75;5.75;;;;;;;10.36;86.81;98943.34;3573050;40;20518;-64
2021/12/28 09:08:22;;;;;;;6.70;5.60;;;;;;;10.34;86.44;98942.66;3573466;40;20065;-63
2021/12/28 09:10:48;;;;;;;6.38;5.13;;;;;;;10.39;86.68;98942.22;3572244;40;20060;-62
2021/12/28 09:13:14;;;;;;;7.30;5.60;;;;;;;10.43;86.16;98936.44;3568439;40;20049;-63
2021/12/28 09:15:42;;;;;;;8.52;5.30;;;;;;;10.39;86.47;98924.25;3571377;40;20118;-66
2021/12/28 09:18:09;;;;;;;10.82;7.15;;;;;;;10.48;87.13;98929.78;3571975;40;20151;-63
2021/12/28 09:20:35;;;;;;;8.68;7.07;;;;;;;10.34;86.46;98910.41;3572796;40;20057;-64
2021/12/28 09:23:01;;;;;;;7.35;6.60;;;;;;;10.53;86.37;98931.06;3572253;40;20115;-63
2021/12/28 09:25:26;;;;;;;7.90;7.03;;;;;;;10.58;86.92;98930.63;3573057;40;20079;-64
2021/12/28 09:27:54;;;;;;;7.15;6.57;;;;;;;10.26;86.88;98878.03;3571996;40;20076;-65
2021/12/28 09:30:21;;;;;;;7.78;7.07;;;;;;;10.40;86.29;98900.94;3570791;40;20049;-64
2021/12/28 09:32:48;;;;;;;8.00;7.22;;;;;;;10.61;86.68;98924.97;3572055;40;20101;-64
2021/12/28 09:35:15;;;;;;;7.32;6.63;;;;;;;10.62;86.46;98915.91;3570549;40;20056;-64
2021/12/28 09:37:41;;;;;;;6.93;6.30;;;;;;;10.67;86.93;98908.28;3570638;40;20059;-65
2021/12/28 09:40:12;;;;;;;7.57;6.88;;;;;;;10.20;86.22;98841.81;3572605;40;20065;-64
2021/12/28 09:42:41;;;;;;;7.32;6.55;;;;;;;10.55;86.65;98886.09;3570592;40;20359;-65
2021/12/28 09:45:10;;;;;;;18.83;16.65;;;;;;;10.68;87.17;98904.59;3572013;40;20706;-66
2021/12/28 09:47:36;;;;;;;23.45;19.65;;;;;;;10.44;86.84;98860.22;3570520;40;20284;-65
2021/12/28 09:50:05;;;;;;;15.40;13.75;;;;;;;10.74;86.62;98909.41;3572741;40;20126;-64
2021/12/28 09:52:32;;;;;;;7.05;6.35;;;;;;;10.61;86.66;98877.44;3573332;40;20049;-64
2021/12/28 09:54:57;;;;;;;6.50;5.90;;;;;;;10.77;86.49;98893.00;3571298;40;20075;-64
2021/12/28 09:57:23;;;;;;;6.78;6.28;;;;;;;10.67;86.04;98876.03;3571310;40;20061;-64
2021/12/28 09:59:49;;;;;;;6.18;5.60;;;;;;;10.86;85.91;98899.34;3571860;40;20096;-63
2021/12/28 10:02:17;;;;;;;7.20;5.47;;;;;;;10.89;85.38;98891.84;3571538;40;20068;-64
2021/12/28 10:04:59;;;;;;;6.38;5.25;;;;;;;10.93;85.29;98893.25;3572941;40;20052;-64
2021/12/28 10:07:29;;;;;;;6.50;5.90;;;;;;;10.97;85.16;98887.56;3570332;40;20060;-64
2021/12/28 10:09:56;;;;;;;6.03;5.00;;;;;;;10.95;85.28;98885.03;3572791;40;20064;-64
2021/12/28 10:12:41;;;;;;;5.47;4.97;;;;;;;10.95;85.58;98884.22;3571345;40;20044;-66
2021/12/28 10:15:19;;;;;;;5.28;4.78;;;;;;;10.95;85.92;98878.81;3572247;40;20053;-63
2021/12/28 10:17:49;;;;;;;5.40;4.50;;;;;;;10.80;85.92;98836.25;3568928;40;20109;-65
2021/12/28 10:20:26;;;;;;;4.68;4.28;;;;;;;10.99;85.69;98864.94;3570789;40;20056;-64
2021/12/28 10:22:59;;;;;;;6.15;3.42;;;;;;;11.01;85.42;98857.59;3566631;40;20083;-64
2021/12/28 10:25:34;;;;;;;4.10;3.70;;;;;;;11.04;85.32;98848.38;3572666;40;20446;-63
2021/12/28 10:28:10;;;;;;;3.70;3.03;;;;;;;11.06;84.44;98835.63;3572532;40;20154;-64
2021/12/28 10:30:43;;;;;;;3.38;3.08;;;;;;;11.22;84.16;98838.53;3569665;40;20572;-64
2021/12/28 10:33:13;;;;;;;;;;;;;;;11.27;83.71;98825.50;3572650;40;20064;-63
2021/12/28 10:35:50;;;;;;;4.18;3.05;;;;;;;11.31;84.02;98829.56;3568968;40;19952;-67
2021/12/28 10:38:21;;;;;;;4.22;2.15;;;;;;;11.30;83.10;98817.13;3571605;40;20104;-66
2021/12/28 10:40:50;;;;;;;2.92;2.20;;;;;;;11.37;83.11;98825.44;3571616;40;20055;-66
2021/12/28 10:43:20;;;;;;;3.58;2.10;;;;;;;11.37;82.58;98814.69;3571440;40;20060;-67
2021/12/28 10:46:01;;;;;;;4.43;2.08;;;;;;;11.38;82.15;98806.47;3571462;40;20065;-65
2021/12/28 10:48:38;;;;;;;3.15;1.85;;;;;;;11.39;82.14;98813.53;3571962;40;20056;-64
2021/12/28 10:51:13;;;;;;;2.67;1.67;;;;;;;11.41;81.79;98820.59;3572221;40;20862;-65
2021/12/28 10:56:37;;;;;;;13.02;8.27;;;;;;;11.37;82.18;98817.38;3569871;40;20100;-64
2021/12/28 10:59:09;;;;;;;8.73;3.70;;;;;;;11.32;83.28;98812.47;3570843;40;20497;-64
2021/12/28 11:01:38;;;;;;;4.38;2.10;;;;;;;11.28;83.44;98802.97;3568109;40;20849;-65
2021/12/28 11:04:09;;;;;;;3.00;2.30;;;;;;;11.23;84.09;98807.97;3570129;40;20061;-65
2021/12/28 11:06:48;;;;;;;2.90;2.17;;;;;;;11.31;84.65;98804.53;3572180;40;20120;-64
2021/12/28 11:09:22;;;;;;;2.50;2.30;;;;;;;11.21;84.83;98799.19;3571966;40;20062;-64
2021/12/28 11:11:51;;;;;;;2.85;2.65;;;;;;;11.19;85.24;98787.72;3569657;40;20073;-65
2021/12/28 11:14:24;;;;;;;3.47;2.67;;;;;;;11.14;85.54;98787.34;3569743;40;20065;-64
2021/12/28 11:17:03;;;;;;;2.90;2.70;;;;;;;11.12;86.08;98778.56;3570113;40;20054;-65
2021/12/28 11:19:38;;;;;;;3.08;2.40;;;;;;;11.10;86.16;98777.84;3570932;40;20060;-65
2021/12/28 11:22:11;;;;;;;3.10;2.22;;;;;;;11.11;86.30;98787.63;3571368;40;20065;-65
2021/12/28 11:24:49;;;;;;;2.40;2.20;;;;;;;11.08;85.86;98771.81;3571062;40;20354;-64
2021/12/28 11:27:30;;;;;;;2.22;2.03;;;;;;;11.05;85.96;98772.09;3569291;40;20049;-64
2021/12/28 11:29:59;;;;;;;2.97;2.42;;;;;;;11.11;85.48;98766.13;3572320;40;20056;-64
2021/12/28 11:32:25;;;;;;;2.50;2.30;;;;;;;11.11;85.56;98775.03;3570395;40;20053;-66
2021/12/28 11:34:52;;;;;;;3.17;1.83;;;;;;;11.12;85.62;98773.19;3570722;40;20146;-63
2021/12/28 11:37:25;;;;;;;2.30;2.10;;;;;;;10.92;85.70;98735.66;3569425;40;20064;-64
2021/12/28 11:40:03;;;;;;;5.30;1.48;;;;;;;11.18;84.58;98772.59;3570212;40;20126;-65
2021/12/28 11:42:31;;;;;;;1.20;1.10;;;;;;;11.19;84.29;98768.91;3571249;40;20068;-65
2021/12/28 11:44:57;;;;;;;3.20;1.00;;;;;;;11.18;82.67;98752.94;3570248;40;20121;-65